Time;durP1;ratioP1;P1;durP2;ratioP2;P2;SDS_P1;SDS_P2;PMS_P1;PMS_P2;Temp;Humidity;BMP_temperature;BMP_pressure;BME280_temperature;BME280_humidity;BME280_pressure;Samples;Min_cycle;Max_cycle;Signal;HPM_P1;HPM_P2
2021/05/08 00:02:00;;;;;;;21.10;18.80;;;;;;;2.93;90.35;101367.69;5046468;28;20064;-82
2021/05/08 00:04:25;;;;;;;21.55;19.25;;;;;;;2.87;90.84;101369.88;5042207;28;20095;-82
2021/05/08 00:06:51;;;;;;;22.05;19.67;;;;;;;2.83;91.19;101371.91;5024135;28;20038;-81
2021/05/08 00:09:16;;;;;;;22.83;20.40;;;;;;;2.82;91.30;101369.31;5044078;28;20044;-81
2021/05/08 00:11:42;;;;;;;22.05;19.67;;;;;;;2.79;91.40;101359.81;5040041;28;20045;-81
2021/05/08 00:14:08;;;;;;;22.80;20.40;;;;;;;2.75;91.21;101366.25;5027181;28;20044;-81
2021/05/08 00:16:34;;;;;;;22.23;19.92;;;;;;;2.74;91.41;101359.25;5049438;28;20045;-81
2021/05/08 00:18:59;;;;;;;23.58;20.08;;;;;;;2.72;91.93;101358.50;5034239;28;20041;-81
2021/05/08 00:21:25;;;;;;;22.38;19.42;;;;;;;2.71;91.76;101356.81;5021533;28;20504;-81
2021/05/08 00:23:50;;;;;;;21.45;19.25;;;;;;;2.68;91.64;101351.69;5025285;28;20041;-81
2021/05/08 00:26:15;;;;;;;20.80;18.20;;;;;;;2.65;91.38;101357.19;5002582;28;20038;-82
2021/05/08 00:28:41;;;;;;;22.75;19.40;;;;;;;2.62;91.56;101358.25;5012447;28;20068;-82
2021/05/08 00:31:07;;;;;;;21.23;18.60;;;;;;;2.58;91.40;101353.22;5038909;28;20116;-81
2021/05/08 00:33:32;;;;;;;20.80;18.60;;;;;;;2.48;91.83;101351.19;5034645;28;20367;-81
2021/05/08 00:35:57;;;;;;;25.13;20.92;;;;;;;2.43;91.98;101350.63;5035534;28;20041;-81
2021/05/08 00:38:23;;;;;;;24.77;20.50;;;;;;;2.39;92.05;101340.34;5049327;28;20095;-81
2021/05/08 00:40:48;;;;;;;24.15;20.92;;;;;;;2.40;92.62;101342.03;5044665;28;20045;-81
2021/05/08 00:43:17;;;;;;;24.27;20.98;;;;;;;2.35;92.70;101339.66;5047305;28;20583;-82
2021/05/08 00:45:42;;;;;;;26.15;21.85;;;;;;;2.37;92.77;101339.56;5038351;28;20119;-82
2021/05/08 00:48:13;;;;;;;23.40;20.70;;;;;;;2.34;92.23;101340.63;5031250;28;20391;-81
2021/05/08 00:50:38;;;;;;;21.63;19.33;;;;;;;2.30;92.51;101340.91;5024427;28;20045;-82
2021/05/08 00:53:07;;;;;;;22.02;19.00;;;;;;;2.28;92.63;101337.50;5022911;28;20044;-81
2021/05/08 00:55:33;;;;;;;23.10;19.30;;;;;;;2.26;92.56;101337.59;5021448;28;20053;-81
2021/05/08 00:58:00;;;;;;;22.67;19.95;;;;;;;2.21;91.85;101334.38;5019646;28;20041;-82
2021/05/08 01:00:26;;;;;;;28.13;20.08;;;;;;;2.16;92.13;101332.03;5022866;28;20049;-82
2021/05/08 01:02:52;;;;;;;24.42;20.05;;;;;;;2.12;92.38;101329.69;5026858;28;20045;-81
2021/05/08 01:05:18;;;;;;;22.65;20.02;;;;;;;2.12;93.05;101327.88;5027837;28;20048;-81
2021/05/08 01:07:44;;;;;;;28.25;20.67;;;;;;;2.10;92.94;101323.63;5043038;28;20037;-81
2021/05/08 01:10:12;;;;;;;24.35;20.20;;;;;;;2.02;92.60;101324.97;5042824;28;20485;-82
2021/05/08 01:12:38;;;;;;;26.23;20.67;;;;;;;2.00;92.80;101326.84;5038344;28;20041;-81
2021/05/08 01:15:06;;;;;;;24.63;20.27;;;;;;;1.98;92.97;101333.19;5026650;28;20037;-81
2021/05/08 01:17:32;;;;;;;22.45;19.95;;;;;;;1.93;93.38;101328.19;5043150;28;20088;-82
2021/05/08 01:19:57;;;;;;;24.77;19.45;;;;;;;1.84;93.74;101325.25;5046497;28;20040;-81
2021/05/08 01:22:24;;;;;;;24.25;19.67;;;;;;;1.88;93.60;101327.63;5046366;28;20157;-82
2021/05/08 01:24:49;;;;;;;24.10;20.35;;;;;;;1.87;93.79;101323.28;5023413;28;20041;-82
2021/05/08 01:27:15;;;;;;;22.75;19.23;;;;;;;1.87;93.25;101325.94;5040149;28;20033;-82
2021/05/08 01:29:42;;;;;;;23.30;19.30;;;;;;;1.84;92.96;101322.59;5041098;28;20112;-82
2021/05/08 01:32:07;;;;;;;22.90;20.00;;;;;;;1.78;93.17;101316.75;5027226;28;20034;-82
2021/05/08 01:34:36;;;;;;;24.27;20.65;;;;;;;1.73;93.38;101318.84;5043397;28;20506;-82
2021/05/08 01:37:03;;;;;;;24.63;20.30;;;;;;;1.73;93.40;101318.00;5024572;28;20128;-82
2021/05/08 01:39:30;;;;;;;22.73;20.30;;;;;;;1.68;93.76;101326.19;5023195;28;20057;-83
2021/05/08 01:41:55;;;;;;;24.88;19.88;;;;;;;1.67;93.38;101323.63;5041106;28;20124;-83
2021/05/08 01:44:20;;;;;;;24.63;19.40;;;;;;;1.61;94.07;101319.56;5042528;28;20135;-83
2021/05/08 01:46:46;;;;;;;24.10;19.23;;;;;;;1.61;93.70;101330.16;5030479;28;20069;-84
2021/05/08 01:49:12;;;;;;;23.85;19.30;;;;;;;1.61;93.61;101322.22;5027825;28;20041;-84
2021/05/08 01:51:38;;;;;;;21.70;18.33;;;;;;;1.60;93.37;101317.03;5025385;28;20080;-84
2021/05/08 01:54:05;;;;;;;21.52;18.92;;;;;;;1.61;93.90;101318.72;5022629;28;20041;-84
2021/05/08 01:56:30;;;;;;;23.48;19.80;;;;;;;1.60;93.83;101322.31;5027063;28;20052;-84
2021/05/08 01:59:03;;;;;;;21.95;17.55;;;;;;;1.60;93.16;101314.38;5027133;28;20046;-85
2021/05/08 02:01:30;;;;;;;22.58;18.48;;;;;;;1.61;92.99;101314.28;5007533;28;20430;-85
2021/05/08 02:03:56;;;;;;;22.45;17.73;;;;;;;1.54;93.00;101327.03;5049984;28;20044;-84
2021/05/08 02:06:21;;;;;;;22.08;18.50;;;;;;;1.56;92.99;101319.88;5035952;28;20041;-85
2021/05/08 02:08:47;;;;;;;20.40;18.30;;;;;;;1.55;93.40;101317.31;5032390;28;20053;-85
2021/05/08 02:11:12;;;;;;;23.77;18.65;;;;;;;1.49;93.45;101315.88;5031386;28;20049;-85
2021/05/08 02:13:39;;;;;;;24.40;20.63;;;;;;;1.49;93.32;101304.44;5040863;28;20044;-84
2021/05/08 02:16:05;;;;;;;25.20;20.38;;;;;;;1.44;93.44;101310.03;5051441;28;20033;-85
2021/05/08 02:18:30;;;;;;;24.20;20.77;;;;;;;1.37;94.02;101306.03;5052404;28;20043;-85
2021/05/08 02:20:56;;;;;;;28.67;23.02;;;;;;;1.38;94.15;101302.44;5035823;28;20115;-85
2021/05/08 02:23:22;;;;;;;27.38;21.88;;;;;;;1.38;93.75;101307.75;5043546;28;20042;-84
2021/05/08 02:25:48;;;;;;;27.30;22.08;;;;;;;1.33;94.28;101301.91;5049031;28;20036;-86
2021/05/08 02:28:15;;;;;;;29.35;23.63;;;;;;;1.30;94.78;101294.16;5027220;28;20044;-86
2021/05/08 02:30:42;;;;;;;30.45;23.83;;;;;;;1.27;94.69;101299.63;5043038;28;20095;-85
2021/05/08 02:33:09;;;;;;;27.52;22.48;;;;;;;1.31;94.64;101295.84;5047329;28;20047;-86
2021/05/08 02:35:38;;;;;;;28.02;23.02;;;;;;;1.30;94.57;101292.34;5042595;28;20047;-86
2021/05/08 02:38:05;;;;;;;;;;;;;;;1.23;95.41;101290.16;5047030;28;20044;-87
2021/05/08 02:40:35;;;;;;;27.67;22.10;;;;;;;1.15;95.02;101287.97;5050870;28;19936;-84
2021/05/08 02:43:08;;;;;;;27.30;22.27;;;;;;;1.20;94.93;101285.06;5028651;28;20140;-85
2021/05/08 02:45:44;;;;;;;26.33;21.95;;;;;;;1.20;95.01;101280.63;5011800;28;20479;-84
2021/05/08 02:48:09;;;;;;;26.08;22.10;;;;;;;1.25;95.00;101283.00;5019908;28;20188;-86
2021/05/08 02:50:35;;;;;;;26.05;22.15;;;;;;;1.26;94.88;101285.53;5027290;28;20397;-87
2021/05/08 02:53:00;;;;;;;25.23;22.02;;;;;;;1.25;94.04;101286.47;5033854;28;20037;-85
2021/05/08 02:55:27;;;;;;;28.88;23.65;;;;;;;1.23;94.59;101282.22;5015871;28;20045;-84
2021/05/08 02:57:52;;;;;;;26.95;22.05;;;;;;;1.24;94.64;101289.25;5017479;28;20064;-89
2021/05/08 03:00:18;;;;;;;25.90;22.10;;;;;;;1.22;94.36;101278.75;5032703;28;20123;-85
2021/05/08 03:02:44;;;;;;;29.20;24.75;;;;;;;1.21;94.51;101279.69;5046258;28;20041;-87
2021/05/08 03:05:11;;;;;;;30.40;23.88;;;;;;;1.20;94.68;101279.78;5046946;28;20047;-86
2021/05/08 03:07:36;;;;;;;34.10;25.50;;;;;;;1.17;95.07;101283.44;5026844;28;20099;-82
2021/05/08 03:10:04;;;;;;;33.97;27.83;;;;;;;1.16;94.89;101275.63;5028167;28;20041;-81
2021/05/08 03:12:29;;;;;;;35.08;28.10;;;;;;;1.17;95.31;101275.50;5025164;28;20038;-86
2021/05/08 03:14:55;;;;;;;33.50;25.48;;;;;;;1.09;95.51;101265.41;5045442;28;20077;-83
2021/05/08 03:17:20;;;;;;;34.50;27.38;;;;;;;1.09;95.56;101265.41;5024281;28;21014;-87
2021/05/08 03:19:46;;;;;;;32.63;26.13;;;;;;;1.12;95.10;101267.88;5031903;28;20087;-84
2021/05/08 03:22:11;;;;;;;33.13;25.85;;;;;;;1.15;95.21;101269.47;5036792;28;20045;-85
2021/05/08 03:24:37;;;;;;;34.00;26.65;;;;;;;1.11;95.02;101263.50;5033438;28;20049;-84
2021/05/08 03:27:03;;;;;;;32.80;25.85;;;;;;;1.10;95.35;101261.81;5047530;28;20037;-85
2021/05/08 03:29:28;;;;;;;33.15;25.13;;;;;;;1.03;95.19;101264.91;5051237;28;20047;-87
2021/05/08 03:31:54;;;;;;;30.85;24.17;;;;;;;1.05;95.30;101263.88;5049197;28;20123;-83
2021/05/08 03:34:20;;;;;;;29.35;24.60;;;;;;;1.08;95.08;101260.22;5049393;28;20041;-83
2021/05/08 03:36:46;;;;;;;31.42;23.85;;;;;;;1.08;94.67;101262.84;5048801;28;20091;-88
2021/05/08 03:39:11;;;;;;;32.67;25.80;;;;;;;1.09;95.40;101260.13;5045537;28;20045;-84
2021/05/08 03:41:37;;;;;;;30.00;24.27;;;;;;;1.09;95.07;101264.53;5045601;28;20041;-81
2021/05/08 03:44:02;;;;;;;34.45;26.65;;;;;;;1.09;95.18;101254.84;5031880;28;20029;-81
2021/05/08 03:46:28;;;;;;;32.72;26.08;;;;;;;1.07;95.06;101246.16;5032142;28;20075;-83
2021/05/08 03:48:53;;;;;;;33.63;27.25;;;;;;;1.03;95.55;101244.63;5018518;28;20390;-88
2021/05/08 03:51:23;;;;;;;37.95;27.90;;;;;;;1.07;95.17;101251.44;5019516;28;20060;-85
2021/05/08 03:53:48;;;;;;;37.08;29.42;;;;;;;1.08;95.44;101245.19;5025434;28;20114;-82
2021/05/08 03:56:13;;;;;;;34.80;28.70;;;;;;;1.07;95.32;101254.09;5030216;28;20123;-80
2021/05/08 03:58:39;;;;;;;38.88;29.35;;;;;;;1.08;95.49;101247.84;5028568;28;20053;-86
2021/05/08 04:01:04;;;;;;;40.85;28.05;;;;;;;1.06;95.38;101241.78;5039122;28;20041;-85
2021/05/08 04:03:29;;;;;;;35.92;28.60;;;;;;;1.07;95.63;101242.66;5036164;28;20505;-83
2021/05/08 04:05:55;;;;;;;35.15;27.35;;;;;;;1.05;95.92;101237.44;5038659;28;20057;-86
2021/05/08 04:08:21;;;;;;;38.40;27.70;;;;;;;1.14;95.54;101238.69;5029426;28;20061;-83
2021/05/08 04:10:47;;;;;;;36.10;27.75;;;;;;;1.10;95.83;101240.69;5029002;28;20041;-80
2021/05/08 04:13:17;;;;;;;37.08;28.25;;;;;;;1.20;95.51;101240.13;5036092;28;20041;-82
2021/05/08 04:15:44;;;;;;;38.30;29.15;;;;;;;1.20;95.54;101237.47;5031974;28;20045;-86
2021/05/08 04:18:10;;;;;;;32.42;27.00;;;;;;;1.23;95.50;101237.28;5028231;28;20041;-82
2021/05/08 04:20:35;;;;;;;39.40;30.10;;;;;;;1.28;95.98;101245.78;5034457;28;20120;-84
2021/05/08 04:23:00;;;;;;;39.70;30.60;;;;;;;1.34;96.32;101245.41;5045408;28;20120;-80
2021/05/08 04:25:27;;;;;;;43.53;33.28;;;;;;;1.43;96.58;101236.91;5049267;28;20048;-83
2021/05/08 04:27:53;;;;;;;38.35;30.55;;;;;;;1.51;96.86;101234.66;5028091;28;20041;-85
2021/05/08 04:30:19;;;;;;;42.13;32.47;;;;;;;1.60;96.50;101242.97;5032425;28;20158;-89
2021/05/08 04:32:45;;;;;;;40.35;30.58;;;;;;;1.65;96.30;101233.78;5029663;28;20677;-84
2021/05/08 04:35:11;;;;;;;43.10;33.15;;;;;;;1.74;96.07;101229.72;5027940;28;20045;-82
2021/05/08 04:37:36;;;;;;;40.67;32.75;;;;;;;1.81;95.96;101231.00;5039663;28;20103;-84
2021/05/08 04:40:03;;;;;;;40.80;30.88;;;;;;;1.87;96.03;101233.28;5031601;28;20037;-83
2021/05/08 04:42:28;;;;;;;36.88;29.73;;;;;;;1.92;95.19;101233.84;5026653;28;20046;-87
2021/05/08 04:44:54;;;;;;;39.15;30.98;;;;;;;1.97;95.52;101222.97;5021721;28;20509;-83
2021/05/08 04:47:20;;;;;;;38.83;29.50;;;;;;;2.01;96.08;101227.09;5029790;28;20037;-87
2021/05/08 04:49:47;;;;;;;39.97;29.70;;;;;;;2.07;95.38;101228.50;5031456;28;20037;-80
2021/05/08 04:52:12;;;;;;;38.05;28.42;;;;;;;2.13;95.36;101230.75;5027526;28;20552;-83
2021/05/08 04:54:38;;;;;;;35.90;28.20;;;;;;;2.21;94.90;101231.09;5033015;28;20044;-84
2021/05/08 04:57:03;;;;;;;36.65;27.98;;;;;;;2.28;95.36;101234.22;5013994;28;20069;-85
2021/05/08 04:59:30;;;;;;;37.70;29.95;;;;;;;2.37;94.66;101231.81;5014990;28;20137;-84
2021/05/08 05:01:55;;;;;;;35.72;29.00;;;;;;;2.44;94.72;101230.44;5027949;28;20120;-82
2021/05/08 05:04:20;;;;;;;39.97;30.55;;;;;;;2.57;94.58;101222.56;5036745;28;20132;-82
2021/05/08 05:06:46;;;;;;;39.38;28.58;;;;;;;2.69;94.88;101220.88;5045083;28;20049;-81
2021/05/08 05:09:11;;;;;;;35.75;27.05;;;;;;;2.83;94.95;101218.16;5047805;28;20039;-82
2021/05/08 05:11:37;;;;;;;35.25;27.00;;;;;;;2.96;93.75;101220.81;5028263;28;20132;-82
2021/05/08 05:14:03;;;;;;;33.28;26.13;;;;;;;3.05;93.69;101216.66;5026501;28;20042;-82
2021/05/08 05:16:29;;;;;;;36.88;26.77;;;;;;;3.15;92.38;101210.63;5039678;28;20052;-82
2021/05/08 05:18:54;;;;;;;32.88;25.98;;;;;;;3.25;92.12;101208.22;5014304;28;20037;-81
2021/05/08 05:21:19;;;;;;;33.30;25.63;;;;;;;3.33;91.34;101210.31;5013347;28;20066;-82
2021/05/08 05:23:45;;;;;;;31.23;25.30;;;;;;;3.43;90.92;101210.53;5046870;28;20041;-81
2021/05/08 05:26:10;;;;;;;34.67;25.35;;;;;;;3.52;90.63;101213.38;5012598;28;20096;-82
2021/05/08 05:28:35;;;;;;;33.75;24.98;;;;;;;3.64;90.98;101218.78;5031725;28;20036;-82
2021/05/08 05:31:01;;;;;;;32.10;23.88;;;;;;;3.77;89.67;101220.44;5043199;28;20033;-80
2021/05/08 05:33:26;;;;;;;31.20;23.42;;;;;;;3.88;90.84;101216.16;5048057;28;20116;-80
2021/05/08 05:35:54;;;;;;;28.70;22.35;;;;;;;4.05;89.51;101221.09;5046188;28;22111;-81
2021/05/08 05:38:23;;;;;;;32.53;23.98;;;;;;;4.21;88.55;101216.38;5044793;28;20106;-81
2021/05/08 05:40:52;;;;;;;28.88;21.73;;;;;;;4.35;89.34;101217.16;5046477;28;20037;-81
2021/05/08 05:43:17;;;;;;;32.00;22.70;;;;;;;4.50;87.38;101226.66;5043872;28;20125;-81
2021/05/08 05:45:43;;;;;;;29.25;22.15;;;;;;;4.64;88.33;101220.31;5048426;28;20513;-81
2021/05/08 05:48:08;;;;;;;26.75;21.08;;;;;;;4.80;86.87;101227.97;5045229;28;20043;-81
2021/05/08 05:50:42;;;;;;;26.90;20.63;;;;;;;4.94;85.63;101220.63;5045656;28;20490;-81
2021/05/08 05:53:08;;;;;;;25.25;20.35;;;;;;;5.09;84.56;101218.63;5042764;28;20086;-81
2021/05/08 05:55:34;;;;;;;25.52;19.23;;;;;;;5.22;84.32;101217.66;5046695;28;20052;-81
2021/05/08 05:58:00;;;;;;;25.65;19.90;;;;;;;5.34;84.44;101222.84;5046009;28;20048;-81
2021/05/08 06:00:26;;;;;;;27.33;20.25;;;;;;;5.48;83.47;101232.44;5044368;28;20449;-81
2021/05/08 06:02:51;;;;;;;24.52;17.67;;;;;;;5.57;81.80;101226.38;5044518;28;20072;-81
2021/05/08 06:05:17;;;;;;;22.63;18.83;;;;;;;5.69;81.54;101229.03;5043616;28;20033;-81
2021/05/08 06:07:43;;;;;;;24.48;18.95;;;;;;;5.84;81.32;101222.47;5044298;28;20110;-81
2021/05/08 06:10:10;;;;;;;25.73;17.65;;;;;;;5.96;80.47;101224.22;5022900;28;20709;-81
2021/05/08 06:12:36;;;;;;;22.52;17.88;;;;;;;6.14;80.60;101219.19;5043548;28;20492;-81
2021/05/08 06:15:03;;;;;;;22.45;16.00;;;;;;;6.31;79.59;101221.31;5046066;28;20056;-82
2021/05/08 06:17:28;;;;;;;20.50;14.40;;;;;;;6.53;79.37;101223.06;5043354;28;20041;-82
2021/05/08 06:19:53;;;;;;;19.00;15.00;;;;;;;6.67;78.07;101219.22;5043494;28;20029;-82
2021/05/08 06:22:19;;;;;;;20.65;14.35;;;;;;;6.80;77.52;101227.06;5042289;28;20066;-82
2021/05/08 06:24:45;;;;;;;21.05;14.98;;;;;;;6.89;76.09;101226.28;5036944;28;20044;-82
2021/05/08 06:27:10;;;;;;;19.38;14.38;;;;;;;6.98;76.66;101220.16;5043683;28;20059;-82
2021/05/08 06:29:38;;;;;;;19.92;13.60;;;;;;;7.09;75.93;101218.41;5040119;28;20045;-82
2021/05/08 06:32:04;;;;;;;21.40;13.70;;;;;;;7.17;75.95;101215.94;5041351;28;20033;-82
2021/05/08 06:34:31;;;;;;;16.88;13.38;;;;;;;7.22;75.67;101206.56;5035622;28;20691;-82
2021/05/08 06:36:58;;;;;;;18.98;13.48;;;;;;;7.32;75.31;101217.28;5043615;28;20044;-82
2021/05/08 06:39:24;;;;;;;15.48;11.90;;;;;;;7.41;74.46;101202.28;5025946;28;20406;-81
2021/05/08 06:41:49;;;;;;;19.45;11.75;;;;;;;7.47;73.46;101196.41;5020135;28;20057;-81
2021/05/08 06:44:15;;;;;;;15.63;10.07;;;;;;;7.56;72.86;101192.06;5023725;28;20048;-81
2021/05/08 06:46:40;;;;;;;14.10;10.82;;;;;;;7.71;71.85;101193.41;5008961;28;20051;-80
2021/05/08 06:49:05;;;;;;;15.82;10.15;;;;;;;7.83;71.38;101192.31;5019970;28;20044;-81
2021/05/08 06:51:31;;;;;;;18.65;11.30;;;;;;;7.98;71.05;101195.44;5039684;28;20585;-81
2021/05/08 06:53:56;;;;;;;13.35;10.10;;;;;;;8.07;70.61;101188.41;5012115;28;20037;-81
2021/05/08 06:56:23;;;;;;;15.63;10.23;;;;;;;8.19;70.39;101183.78;5014160;28;20275;-81
2021/05/08 06:58:50;;;;;;;16.27;10.73;;;;;;;8.22;69.06;101189.69;5017608;28;20084;-81
2021/05/08 07:01:16;;;;;;;14.40;10.25;;;;;;;8.30;69.56;101184.50;5018970;28;20054;-81
2021/05/08 07:03:42;;;;;;;15.88;10.60;;;;;;;8.41;68.62;101190.75;5043228;28;20044;-81
2021/05/08 07:06:07;;;;;;;13.73;10.60;;;;;;;8.48;68.30;101181.16;5046896;28;20041;-81
2021/05/08 07:08:33;;;;;;;14.55;10.23;;;;;;;8.58;67.76;101172.16;5026805;28;22441;-81
2021/05/08 07:10:58;;;;;;;15.38;11.07;;;;;;;8.69;66.90;101172.97;5030035;28;20071;-81
2021/05/08 07:13:23;;;;;;;13.70;9.90;;;;;;;8.76;66.58;101174.09;5044191;28;20079;-79
2021/05/08 07:15:49;;;;;;;13.40;10.38;;;;;;;8.85;66.96;101172.41;5041677;28;20049;-79
2021/05/08 07:18:14;;;;;;;16.33;11.20;;;;;;;8.91;64.75;101177.19;5046315;28;20079;-79
2021/05/08 07:20:40;;;;;;;19.27;11.80;;;;;;;8.93;65.05;101167.19;5013092;28;20041;-79
2021/05/08 07:23:07;;;;;;;15.55;11.32;;;;;;;8.99;65.82;101166.59;5043261;28;20120;-79
2021/05/08 07:25:37;;;;;;;16.48;12.57;;;;;;;9.09;65.83;101158.53;5028454;28;20560;-79
2021/05/08 07:28:26;;;;;;;16.92;11.85;;;;;;;9.16;64.93;101148.94;5020331;28;20041;-79
2021/05/08 07:30:54;;;;;;;16.80;12.02;;;;;;;9.13;63.58;101154.59;5043282;28;20087;-79
2021/05/08 07:33:21;;;;;;;16.02;10.93;;;;;;;9.17;63.50;101151.44;5048393;28;20037;-79
2021/05/08 07:35:47;;;;;;;16.02;11.63;;;;;;;9.23;64.85;101156.22;5031876;28;20045;-79
2021/05/08 07:38:13;;;;;;;16.30;11.38;;;;;;;9.22;62.94;101161.72;5048252;28;20397;-79
2021/05/08 07:40:40;;;;;;;18.02;11.98;;;;;;;9.21;65.09;101144.84;5048723;28;20079;-79
2021/05/08 07:43:07;;;;;;;18.10;12.45;;;;;;;9.24;64.37;101151.72;5047816;28;20032;-79
2021/05/08 07:45:33;;;;;;;17.92;12.20;;;;;;;9.23;64.92;101140.16;5044693;28;20057;-79
2021/05/08 07:47:59;;;;;;;18.05;12.38;;;;;;;9.24;65.09;101147.22;5046845;28;20071;-80
2021/05/08 07:50:25;;;;;;;18.17;11.75;;;;;;;9.29;65.09;101136.03;5046483;28;20044;-79
2021/05/08 07:52:51;;;;;;;15.88;12.20;;;;;;;9.42;66.74;101138.41;5048356;28;20140;-79
2021/05/08 07:55:16;;;;;;;17.30;12.98;;;;;;;9.46;65.88;101145.13;5049927;28;20041;-79
2021/05/08 07:57:42;;;;;;;16.95;12.32;;;;;;;9.53;65.87;101142.72;5048811;28;20040;-79
2021/05/08 08:00:10;;;;;;;18.00;12.02;;;;;;;9.52;64.90;101139.19;5048271;28;20044;-79
2021/05/08 08:02:36;;;;;;;20.13;12.93;;;;;;;9.56;66.38;101140.59;5047456;28;20040;-79
2021/05/08 08:05:03;;;;;;;15.05;11.50;;;;;;;9.58;65.73;101125.22;5046015;28;20131;-79
2021/05/08 08:07:28;;;;;;;17.90;12.85;;;;;;;9.61;66.06;101122.22;5044873;28;20064;-79
2021/05/08 08:09:54;;;;;;;16.45;12.50;;;;;;;9.64;67.14;101121.09;5045170;28;20033;-79
2021/05/08 08:12:20;;;;;;;18.83;12.10;;;;;;;9.69;66.77;101111.56;5028511;28;20056;-79
2021/05/08 08:14:45;;;;;;;17.10;12.63;;;;;;;9.80;67.06;101125.78;5040860;28;20044;-79
2021/05/08 08:17:11;;;;;;;14.00;11.73;;;;;;;9.89;67.33;101117.66;5038206;28;20128;-79
2021/05/08 08:19:36;;;;;;;15.95;12.30;;;;;;;9.96;66.65;101115.22;5043484;28;20049;-79
2021/05/08 08:22:02;;;;;;;19.25;13.15;;;;;;;10.04;66.48;101115.31;5009515;28;20045;-79
2021/05/08 08:24:27;;;;;;;17.15;12.05;;;;;;;10.14;65.59;101097.28;5045292;28;20068;-79
2021/05/08 08:26:52;;;;;;;16.33;11.07;;;;;;;10.23;64.24;101100.03;5044743;28;20047;-79
2021/05/08 08:29:18;;;;;;;17.73;11.32;;;;;;;10.24;64.14;101102.59;5042707;28;20064;-79
2021/05/08 08:31:45;;;;;;;15.07;10.77;;;;;;;10.41;65.13;101102.75;5044500;28;20107;-79
2021/05/08 08:34:10;;;;;;;15.98;11.63;;;;;;;10.48;64.28;101091.22;5046167;28;20033;-79
2021/05/08 08:36:36;;;;;;;14.32;11.43;;;;;;;10.53;64.64;101091.63;5047737;28;20499;-79
2021/05/08 08:39:02;;;;;;;17.73;11.73;;;;;;;10.59;64.61;101088.31;5046110;28;20144;-79
2021/05/08 08:41:28;;;;;;;18.27;11.85;;;;;;;10.63;63.74;101093.34;5038106;28;20048;-79
2021/05/08 08:43:54;;;;;;;14.75;10.75;;;;;;;10.63;63.55;101090.66;5041703;28;20045;-79
2021/05/08 08:46:19;;;;;;;14.13;9.80;;;;;;;10.67;62.11;101083.97;5041514;28;20508;-80
2021/05/08 08:48:45;;;;;;;15.38;10.00;;;;;;;10.72;61.98;101089.72;5042562;28;20700;-79
2021/05/08 08:51:13;;;;;;;13.27;10.13;;;;;;;10.82;63.11;101083.25;5041543;28;20043;-79
2021/05/08 08:53:39;;;;;;;13.48;9.07;;;;;;;10.89;60.51;101075.38;5044360;28;20040;-79
2021/05/08 08:56:05;;;;;;;13.02;8.48;;;;;;;10.97;59.65;101072.75;5044093;28;20528;-79
2021/05/08 08:58:33;;;;;;;15.38;9.88;;;;;;;11.01;61.00;101068.72;5040384;28;20128;-79
2021/05/08 09:00:59;;;;;;;12.07;9.02;;;;;;;11.11;60.19;101070.47;5041698;28;20040;-79
2021/05/08 09:03:25;;;;;;;12.98;9.52;;;;;;;11.21;60.82;101065.81;5059797;28;20056;-79
2021/05/08 09:05:51;;;;;;;12.68;7.75;;;;;;;11.22;57.84;101064.78;5043517;28;20184;-79
2021/05/08 09:08:16;;;;;;;13.02;8.15;;;;;;;11.27;59.84;101052.56;5041908;28;20083;-79
2021/05/08 09:10:42;;;;;;;13.10;8.88;;;;;;;11.39;59.78;101054.94;5042828;28;20433;-79
2021/05/08 09:13:15;;;;;;;12.02;7.80;;;;;;;11.42;57.18;101047.44;5042180;28;20474;-79
2021/05/08 09:15:42;;;;;;;12.48;8.18;;;;;;;11.44;58.08;101052.63;5042381;28;20148;-79
2021/05/08 09:18:29;;;;;;;11.13;7.53;;;;;;;11.50;57.66;101050.09;5044381;28;20041;-79
2021/05/08 09:20:54;;;;;;;11.57;8.57;;;;;;;11.52;57.37;101048.09;5041090;28;20044;-79
2021/05/08 09:23:25;;;;;;;11.48;8.02;;;;;;;11.55;57.81;101038.88;5040051;28;20029;-79
2021/05/08 09:26:07;;;;;;;17.20;8.38;;;;;;;11.62;58.42;101039.06;5045937;28;20041;-79
2021/05/08 09:28:40;;;;;;;12.48;8.50;;;;;;;11.75;58.77;101031.34;5039097;28;20095;-80
2021/05/08 09:31:13;;;;;;;10.70;7.35;;;;;;;11.90;57.30;101032.41;5034328;28;20051;-80
2021/05/08 09:33:38;;;;;;;12.02;7.72;;;;;;;11.95;56.63;101032.75;5037930;28;20060;-79
2021/05/08 09:36:10;;;;;;;12.05;7.05;;;;;;;12.03;56.64;101020.31;5040934;28;20060;-79
2021/05/08 09:38:38;;;;;;;10.80;6.50;;;;;;;12.15;54.33;101014.44;5040613;28;20037;-79
2021/05/08 09:41:06;;;;;;;10.88;6.63;;;;;;;12.13;53.74;101013.75;5041476;28;20052;-79
2021/05/08 09:43:33;;;;;;;10.82;6.88;;;;;;;12.14;54.62;101010.06;5044760;28;20045;-79
2021/05/08 09:45:59;;;;;;;9.80;7.00;;;;;;;12.21;55.42;100991.38;5047488;28;20124;-79
2021/05/08 09:48:33;;;;;;;10.88;6.10;;;;;;;12.38;55.26;101009.19;5048180;28;20135;-80
2021/05/08 09:51:17;;;;;;;9.27;6.00;;;;;;;12.44;55.31;100996.06;5045216;28;20536;-79
2021/05/08 09:53:43;;;;;;;10.88;5.90;;;;;;;12.54;53.80;100992.16;5041969;28;20037;-79
2021/05/08 09:56:35;;;;;;;11.82;6.13;;;;;;;12.60;52.09;100991.47;5037949;28;20041;-79
2021/05/08 09:59:26;;;;;;;11.38;6.18;;;;;;;12.65;52.86;100986.41;5043962;28;20042;-79
2021/05/08 10:02:04;;;;;;;10.30;5.25;;;;;;;12.86;53.57;100991.22;5023158;28;20041;-79
2021/05/08 10:04:50;;;;;;;10.45;4.43;;;;;;;12.96;51.50;100979.41;5047077;28;20075;-79
2021/05/08 10:07:24;;;;;;;9.38;4.53;;;;;;;13.19;51.88;100980.28;5045520;28;20053;-79
2021/05/08 10:09:52;;;;;;;8.45;4.15;;;;;;;13.35;52.76;100979.41;5046707;28;20493;-79
2021/05/08 10:12:21;;;;;;;6.85;4.65;;;;;;;13.39;51.16;100974.50;5044222;28;20188;-79
2021/05/08 10:14:47;;;;;;;;;;;;;;;13.39;50.16;100964.53;5051566;28;20102;-80
2021/05/08 10:17:15;;;;;;;9.63;4.65;;;;;;;13.37;50.78;100966.56;5045722;28;20071;-80
2021/05/08 10:19:43;;;;;;;10.98;4.90;;;;;;;13.46;51.05;100967.34;5049786;28;20045;-79
2021/05/08 10:22:11;;;;;;;7.63;3.65;;;;;;;13.45;49.32;100949.50;5046714;28;20083;-80
2021/05/08 10:24:38;;;;;;;7.90;4.00;;;;;;;13.44;47.73;100951.38;5051630;28;20672;-79
2021/05/08 10:27:04;;;;;;;7.47;4.18;;;;;;;13.40;49.42;100952.72;5050839;28;20051;-80
2021/05/08 10:29:31;;;;;;;9.48;4.35;;;;;;;13.39;47.74;100947.53;5031326;28;20041;-80
2021/05/08 10:32:00;;;;;;;8.25;3.90;;;;;;;13.47;48.64;100945.63;5045285;28;20049;-80
2021/05/08 10:34:36;;;;;;;7.97;4.35;;;;;;;13.47;47.61;100944.78;5047923;28;20045;-80
2021/05/08 10:37:12;;;;;;;10.27;4.30;;;;;;;13.52;48.86;100936.97;5024090;28;20050;-80
2021/05/08 10:39:59;;;;;;;8.77;4.15;;;;;;;13.51;48.97;100935.31;5026440;28;20053;-80
2021/05/08 10:42:41;;;;;;;6.97;4.05;;;;;;;13.64;48.97;100932.84;5037678;28;20052;-80
2021/05/08 10:45:15;;;;;;;7.65;4.22;;;;;;;13.74;50.33;100929.91;5047750;28;20127;-80
2021/05/08 10:48:00;;;;;;;9.10;4.50;;;;;;;13.83;47.89;100922.56;5055638;28;20045;-80
2021/05/08 10:50:36;;;;;;;7.95;4.32;;;;;;;13.77;46.52;100929.53;5050310;28;20094;-80
2021/05/08 10:53:07;;;;;;;7.20;3.92;;;;;;;13.74;45.38;100919.94;5043913;28;20033;-80
2021/05/08 10:55:42;;;;;;;9.68;4.93;;;;;;;13.86;47.99;100916.81;5048558;28;20049;-80
2021/05/08 10:58:13;;;;;;;6.07;4.10;;;;;;;13.87;45.78;100910.41;5049618;28;20535;-80
2021/05/08 11:01:11;;;;;;;8.02;4.13;;;;;;;13.82;46.63;100902.88;5049751;28;20099;-80
2021/05/08 11:03:46;;;;;;;7.00;4.28;;;;;;;13.95;46.09;100903.09;5049177;28;20045;-80
2021/05/08 11:06:11;;;;;;;6.50;3.78;;;;;;;14.02;47.23;100900.47;5048932;28;20389;-80
2021/05/08 11:08:36;;;;;;;9.13;3.78;;;;;;;14.09;44.23;100903.28;5050919;28;20037;-80
2021/05/08 11:11:03;;;;;;;7.20;3.90;;;;;;;14.15;45.19;100899.81;5050689;28;20044;-80
2021/05/08 11:13:41;;;;;;;5.90;3.45;;;;;;;14.14;44.46;100899.00;5047573;28;20057;-80
2021/05/08 11:16:12;;;;;;;6.93;4.15;;;;;;;14.17;46.09;100893.22;5049133;28;20053;-80
2021/05/08 11:18:41;;;;;;;6.70;3.83;;;;;;;14.25;45.87;100883.38;5049047;28;20048;-80
2021/05/08 11:21:10;;;;;;;7.10;3.72;;;;;;;14.26;43.41;100887.75;5049944;28;20509;-80